sensor_id;sensor_type;location;lat;lon;timestamp;pressure;altitude;pressure_sealevel;temperature;humidity
596;BME280;19946;49.306;11.350;2022-09-09T00:00:16;96138.94;;;11.03;100.00
596;BME280;19946;49.306;11.350;2022-09-09T00:03:23;96136.44;;;11.20;100.00
596;BME280;19946;49.306;11.350;2022-09-09T00:06:31;96137.16;;;11.13;100.00
596;BME280;19946;49.306;11.350;2022-09-09T00:09:42;96085.81;;;10.79;100.00
596;BME280;19946;49.306;11.350;2022-09-09T00:12:55;96118.94;;;10.76;100.00
596;BME280;19946;49.306;11.350;2022-09-09T00:16:08;96125.78;;;10.67;100.00
596;BME280;19946;49.306;11.350;2022-09-09T00:19:24;96093.38;;;10.44;100.00
596;BME280;19946;49.306;11.350;2022-09-09T00:22:30;96102.06;;;10.52;100.00
596;BME280;19946;49.306;11.350;2022-09-09T00:32:19;96087.91;;;11.13;100.00
596;BME280;19946;49.306;11.350;2022-09-09T00:35:29;96097.38;;;11.31;100.00
596;BME280;19946;49.306;11.350;2022-09-09T00:38:59;96114.03;;;11.29;100.00
596;BME280;19946;49.306;11.350;2022-09-09T00:45:31;96106.63;;;11.44;100.00
596;BME280;19946;49.306;11.350;2022-09-09T00:48:57;96105.13;;;11.41;100.00
596;BME280;19946;49.306;11.350;2022-09-09T00:55:42;96054.63;;;11.08;100.00
596;BME280;19946;49.306;11.350;2022-09-09T00:58:53;96087.16;;;11.30;100.00
596;BME280;19946;49.306;11.350;2022-09-09T01:01:59;96032.31;;;10.97;100.00
596;BME280;19946;49.306;11.350;2022-09-09T01:05:13;96119.56;;;11.44;100.00
596;BME280;19946;49.306;11.350;2022-09-09T01:11:48;96115.88;;;11.46;100.00
596;BME280;19946;49.306;11.350;2022-09-09T01:15:18;96096.94;;;11.36;100.00
596;BME280;19946;49.306;11.350;2022-09-09T01:18:27;96102.72;;;11.30;100.00
596;BME280;19946;49.306;11.350;2022-09-09T01:21:39;96113.44;;;11.45;100.00
596;BME280;19946;49.306;11.350;2022-09-09T01:28:26;96069.31;;;11.17;100.00
596;BME280;19946;49.306;11.350;2022-09-09T01:31:38;96047.97;;;11.06;100.00
596;BME280;19946;49.306;11.350;2022-09-09T01:34:40;96051.22;;;11.08;100.00
596;BME280;19946;49.306;11.350;2022-09-09T01:37:41;96074.72;;;11.33;100.00
596;BME280;19946;49.306;11.350;2022-09-09T01:40:42;96089.66;;;11.49;100.00
596;BME280;19946;49.306;11.350;2022-09-09T01:43:42;96043.38;;;11.27;100.00
596;BME280;19946;49.306;11.350;2022-09-09T01:46:43;96039.13;;;11.26;100.00
596;BME280;19946;49.306;11.350;2022-09-09T01:49:50;96064.41;;;11.51;100.00
596;BME280;19946;49.306;11.350;2022-09-09T01:52:58;96083.13;;;11.73;100.00
596;BME280;19946;49.306;11.350;2022-09-09T01:56:12;96093.31;;;11.84;100.00
596;BME280;19946;49.306;11.350;2022-09-09T02:06:19;96105.72;;;12.07;100.00
596;BME280;19946;49.306;11.350;2022-09-09T02:09:26;96114.06;;;12.11;100.00
596;BME280;19946;49.306;11.350;2022-09-09T02:12:30;96066.13;;;11.88;100.00
596;BME280;19946;49.306;11.350;2022-09-09T02:15:38;96080.88;;;12.05;100.00
596;BME280;19946;49.306;11.350;2022-09-09T02:19:01;96059.00;;;11.90;100.00
596;BME280;19946;49.306;11.350;2022-09-09T02:22:16;96069.47;;;11.98;100.00
596;BME280;19946;49.306;11.350;2022-09-09T02:25:20;96044.69;;;11.86;100.00
596;BME280;19946;49.306;11.350;2022-09-09T02:28:25;96001.69;;;11.65;100.00
596;BME280;19946;49.306;11.350;2022-09-09T02:31:28;96049.06;;;12.03;100.00
596;BME280;19946;49.306;11.350;2022-09-09T02:34:40;96063.69;;;12.04;100.00
596;BME280;19946;49.306;11.350;2022-09-09T02:37:44;96036.91;;;12.03;100.00
596;BME280;19946;49.306;11.350;2022-09-09T02:40:46;96052.25;;;12.15;100.00
596;BME280;19946;49.306;11.350;2022-09-09T02:43:47;96080.22;;;12.38;100.00
596;BME280;19946;49.306;11.350;2022-09-09T02:50:33;96078.81;;;12.26;100.00
596;BME280;19946;49.306;11.350;2022-09-09T02:53:48;96046.25;;;12.14;100.00
596;BME280;19946;49.306;11.350;2022-09-09T02:56:52;96034.56;;;12.10;100.00
596;BME280;19946;49.306;11.350;2022-09-09T02:59:58;96084.44;;;12.39;100.00
596;BME280;19946;49.306;11.350;2022-09-09T03:02:59;96045.66;;;12.20;100.00
596;BME280;19946;49.306;11.350;2022-09-09T03:06:00;96035.28;;;12.20;100.00
596;BME280;19946;49.306;11.350;2022-09-09T03:09:02;96086.75;;;12.42;100.00
596;BME280;19946;49.306;11.350;2022-09-09T03:12:03;96053.47;;;12.20;100.00
596;BME280;19946;49.306;11.350;2022-09-09T03:15:07;96074.56;;;12.25;100.00
596;BME280;19946;49.306;11.350;2022-09-09T03:18:08;96086.84;;;12.33;100.00
596;BME280;19946;49.306;11.350;2022-09-09T03:21:08;96053.69;;;12.09;100.00
596;BME280;19946;49.306;11.350;2022-09-09T03:24:11;96046.13;;;11.98;100.00
596;BME280;19946;49.306;11.350;2022-09-09T03:27:12;96051.31;;;11.98;100.00
596;BME280;19946;49.306;11.350;2022-09-09T03:30:14;96058.50;;;12.04;100.00
596;BME280;19946;49.306;11.350;2022-09-09T03:33:16;96034.19;;;11.87;100.00
596;BME280;19946;49.306;11.350;2022-09-09T03:36:19;96021.34;;;11.86;100.00
596;BME280;19946;49.306;11.350;2022-09-09T03:39:20;96083.94;;;12.18;100.00
596;BME280;19946;49.306;11.350;2022-09-09T03:42:21;96060.41;;;12.02;100.00
596;BME280;19946;49.306;11.350;2022-09-09T03:45:25;96032.47;;;11.78;100.00
596;BME280;19946;49.306;11.350;2022-09-09T03:48:26;96089.28;;;12.17;100.00
596;BME280;19946;49.306;11.350;2022-09-09T03:51:28;96054.19;;;11.95;100.00
596;BME280;19946;49.306;11.350;2022-09-09T03:54:28;96057.31;;;11.98;100.00
596;BME280;19946;49.306;11.350;2022-09-09T03:57:30;96061.09;;;12.04;100.00
596;BME280;19946;49.306;11.350;2022-09-09T04:00:31;96054.13;;;12.04;100.00
596;BME280;19946;49.306;11.350;2022-09-09T04:03:32;96087.50;;;12.17;100.00
596;BME280;19946;49.306;11.350;2022-09-09T04:06:32;96081.88;;;12.22;100.00
596;BME280;19946;49.306;11.350;2022-09-09T04:09:33;96029.81;;;11.88;100.00
596;BME280;19946;49.306;11.350;2022-09-09T04:12:33;96071.63;;;12.20;100.00
596;BME280;19946;49.306;11.350;2022-09-09T04:15:35;96038.34;;;11.98;100.00
596;BME280;19946;49.306;11.350;2022-09-09T04:18:36;96040.91;;;12.16;100.00
596;BME280;19946;49.306;11.350;2022-09-09T04:21:37;96046.63;;;12.19;100.00
596;BME280;19946;49.306;11.350;2022-09-09T04:24:37;96052.84;;;12.26;100.00
596;BME280;19946;49.306;11.350;2022-09-09T04:27:38;96042.94;;;12.22;100.00
596;BME280;19946;49.306;11.350;2022-09-09T04:30:41;96079.44;;;12.46;100.00
596;BME280;19946;49.306;11.350;2022-09-09T04:33:41;96030.47;;;12.07;100.00
596;BME280;19946;49.306;11.350;2022-09-09T04:36:44;95999.31;;;11.90;100.00
596;BME280;19946;49.306;11.350;2022-09-09T04:39:44;96045.97;;;12.17;100.00
596;BME280;19946;49.306;11.350;2022-09-09T04:42:45;96037.78;;;12.12;100.00
596;BME280;19946;49.306;11.350;2022-09-09T04:45:49;96072.03;;;12.33;100.00
596;BME280;19946;49.306;11.350;2022-09-09T04:48:52;96048.25;;;12.02;100.00
596;BME280;19946;49.306;11.350;2022-09-09T04:51:54;96048.84;;;11.96;100.00
596;BME280;19946;49.306;11.350;2022-09-09T04:54:56;96029.13;;;11.86;100.00
596;BME280;19946;49.306;11.350;2022-09-09T04:57:57;96048.78;;;11.88;100.00
596;BME280;19946;49.306;11.350;2022-09-09T05:01:24;96078.88;;;12.17;100.00
596;BME280;19946;49.306;11.350;2022-09-09T05:04:26;96015.34;;;11.85;100.00
596;BME280;19946;49.306;11.350;2022-09-09T05:07:27;96052.94;;;12.17;100.00
596;BME280;19946;49.306;11.350;2022-09-09T05:10:28;96044.34;;;11.98;100.00
596;BME280;19946;49.306;11.350;2022-09-09T05:13:28;96033.28;;;11.96;100.00
596;BME280;19946;49.306;11.350;2022-09-09T05:16:30;96057.16;;;12.18;100.00
596;BME280;19946;49.306;11.350;2022-09-09T05:19:30;96040.59;;;12.01;100.00
596;BME280;19946;49.306;11.350;2022-09-09T05:22:31;96044.41;;;12.06;100.00
596;BME280;19946;49.306;11.350;2022-09-09T05:25:31;96097.22;;;12.33;100.00
596;BME280;19946;49.306;11.350;2022-09-09T05:28:34;96100.84;;;12.40;100.00
596;BME280;19946;49.306;11.350;2022-09-09T05:31:35;96080.66;;;12.34;100.00
596;BME280;19946;49.306;11.350;2022-09-09T05:34:39;96086.66;;;12.34;100.00
596;BME280;19946;49.306;11.350;2022-09-09T05:37:40;96059.16;;;12.24;100.00
596;BME280;19946;49.306;11.350;2022-09-09T05:40:47;96092.22;;;12.39;100.00
596;BME280;19946;49.306;11.350;2022-09-09T05:43:49;96109.06;;;12.53;100.00
596;BME280;19946;49.306;11.350;2022-09-09T05:46:49;96091.47;;;12.65;100.00
596;BME280;19946;49.306;11.350;2022-09-09T05:49:50;96054.22;;;12.56;100.00
596;BME280;19946;49.306;11.350;2022-09-09T05:52:54;96102.88;;;13.15;100.00
596;BME280;19946;49.306;11.350;2022-09-09T05:56:05;96087.06;;;13.43;100.00
596;BME280;19946;49.306;11.350;2022-09-09T05:59:07;96078.31;;;13.52;100.00
596;BME280;19946;49.306;11.350;2022-09-09T06:02:09;96084.69;;;13.58;100.00
596;BME280;19946;49.306;11.350;2022-09-09T06:05:11;96116.16;;;13.72;100.00
596;BME280;19946;49.306;11.350;2022-09-09T06:08:11;96048.84;;;13.35;100.00
596;BME280;19946;49.306;11.350;2022-09-09T06:11:18;96061.81;;;13.27;100.00
596;BME280;19946;49.306;11.350;2022-09-09T06:14:18;96071.72;;;13.24;100.00
596;BME280;19946;49.306;11.350;2022-09-09T06:17:21;96121.44;;;13.55;100.00
596;BME280;19946;49.306;11.350;2022-09-09T06:20:24;96116.44;;;13.61;100.00
596;BME280;19946;49.306;11.350;2022-09-09T06:23:25;96115.63;;;13.69;100.00
596;BME280;19946;49.306;11.350;2022-09-09T06:26:31;96081.44;;;13.56;100.00
596;BME280;19946;49.306;11.350;2022-09-09T06:29:32;96086.78;;;13.54;100.00
596;BME280;19946;49.306;11.350;2022-09-09T06:32:32;96075.41;;;13.55;100.00
596;BME280;19946;49.306;11.350;2022-09-09T06:35:37;96090.44;;;13.69;100.00
596;BME280;19946;49.306;11.350;2022-09-09T06:38:38;96120.78;;;13.95;100.00
596;BME280;19946;49.306;11.350;2022-09-09T06:41:40;96088.34;;;13.73;100.00
596;BME280;19946;49.306;11.350;2022-09-09T06:44:47;96101.97;;;13.67;100.00
596;BME280;19946;49.306;11.350;2022-09-09T06:47:58;96138.75;;;13.72;100.00
596;BME280;19946;49.306;11.350;2022-09-09T06:51:05;96141.81;;;13.67;100.00
596;BME280;19946;49.306;11.350;2022-09-09T06:54:06;96091.94;;;13.38;100.00
596;BME280;19946;49.306;11.350;2022-09-09T06:57:07;96071.09;;;13.30;100.00
596;BME280;19946;49.306;11.350;2022-09-09T07:00:09;96133.72;;;13.78;100.00
596;BME280;19946;49.306;11.350;2022-09-09T07:03:10;96134.25;;;13.90;100.00
596;BME280;19946;49.306;11.350;2022-09-09T07:06:14;96128.75;;;14.01;100.00
596;BME280;19946;49.306;11.350;2022-09-09T07:09:17;96126.00;;;14.11;100.00
596;BME280;19946;49.306;11.350;2022-09-09T07:12:22;96133.50;;;14.14;100.00
596;BME280;19946;49.306;11.350;2022-09-09T07:15:29;96146.75;;;14.37;100.00
596;BME280;19946;49.306;11.350;2022-09-09T07:18:30;96139.16;;;14.59;100.00
596;BME280;19946;49.306;11.350;2022-09-09T07:21:32;96105.25;;;14.51;100.00
596;BME280;19946;49.306;11.350;2022-09-09T07:24:33;96117.16;;;14.78;100.00
596;BME280;19946;49.306;11.350;2022-09-09T07:27:33;96136.88;;;14.89;100.00
596;BME280;19946;49.306;11.350;2022-09-09T07:30:34;96129.19;;;14.95;100.00
596;BME280;19946;49.306;11.350;2022-09-09T07:33:35;96118.63;;;14.81;100.00
596;BME280;19946;49.306;11.350;2022-09-09T07:36:38;96119.75;;;14.62;100.00
596;BME280;19946;49.306;11.350;2022-09-09T07:39:41;96134.53;;;14.37;100.00
596;BME280;19946;49.306;11.350;2022-09-09T07:42:42;96132.25;;;14.26;100.00
596;BME280;19946;49.306;11.350;2022-09-09T07:45:42;96094.63;;;14.12;100.00
596;BME280;19946;49.306;11.350;2022-09-09T07:48:53;96088.59;;;14.12;100.00
596;BME280;19946;49.306;11.350;2022-09-09T07:51:59;96158.03;;;14.61;100.00
596;BME280;19946;49.306;11.350;2022-09-09T07:55:00;96175.16;;;14.96;100.00
596;BME280;19946;49.306;11.350;2022-09-09T07:58:02;96176.59;;;15.07;100.00
596;BME280;19946;49.306;11.350;2022-09-09T08:01:13;96142.22;;;15.12;100.00
596;BME280;19946;49.306;11.350;2022-09-09T08:04:15;96183.25;;;15.42;100.00
596;BME280;19946;49.306;11.350;2022-09-09T08:07:17;96172.84;;;15.26;100.00
596;BME280;19946;49.306;11.350;2022-09-09T08:10:24;96144.97;;;15.34;100.00
596;BME280;19946;49.306;11.350;2022-09-09T08:13:27;96123.91;;;15.36;100.00
596;BME280;19946;49.306;11.350;2022-09-09T08:16:33;96145.06;;;15.65;100.00
596;BME280;19946;49.306;11.350;2022-09-09T08:19:34;96144.88;;;16.06;100.00
596;BME280;19946;49.306;11.350;2022-09-09T08:22:36;96160.19;;;16.71;100.00
596;BME280;19946;49.306;11.350;2022-09-09T08:25:38;96151.63;;;17.00;100.00
596;BME280;19946;49.306;11.350;2022-09-09T08:28:39;96124.75;;;16.68;100.00
596;BME280;19946;49.306;11.350;2022-09-09T08:31:42;96157.50;;;16.79;100.00
596;BME280;19946;49.306;11.350;2022-09-09T08:34:45;96159.88;;;16.89;100.00
596;BME280;19946;49.306;11.350;2022-09-09T08:37:53;96131.00;;;17.05;100.00
596;BME280;19946;49.306;11.350;2022-09-09T08:40:59;96137.56;;;17.82;100.00
596;BME280;19946;49.306;11.350;2022-09-09T08:47:35;96178.50;;;18.34;100.00
596;BME280;19946;49.306;11.350;2022-09-09T08:50:40;96150.75;;;17.07;100.00
596;BME280;19946;49.306;11.350;2022-09-09T08:53:52;96172.66;;;17.44;100.00
596;BME280;19946;49.306;11.350;2022-09-09T08:56:53;96185.38;;;17.09;100.00
596;BME280;19946;49.306;11.350;2022-09-09T08:59:55;96178.84;;;16.91;100.00
596;BME280;19946;49.306;11.350;2022-09-09T09:03:15;96179.78;;;16.98;100.00
596;BME280;19946;49.306;11.350;2022-09-09T09:16:53;96168.94;;;18.27;100.00
596;BME280;19946;49.306;11.350;2022-09-09T09:19:54;96142.94;;;18.46;100.00
596;BME280;19946;49.306;11.350;2022-09-09T09:22:59;96156.22;;;19.30;100.00
596;BME280;19946;49.306;11.350;2022-09-09T09:26:06;96099.41;;;18.67;100.00
596;BME280;19946;49.306;11.350;2022-09-09T09:29:18;96151.88;;;18.94;100.00
596;BME280;19946;49.306;11.350;2022-09-09T09:32:20;96134.88;;;19.40;100.00
596;BME280;19946;49.306;11.350;2022-09-09T09:35:23;96140.53;;;19.64;100.00
596;BME280;19946;49.306;11.350;2022-09-09T09:38:26;96153.06;;;19.69;100.00
596;BME280;19946;49.306;11.350;2022-09-09T09:41:36;96147.44;;;19.44;100.00
596;BME280;19946;49.306;11.350;2022-09-09T09:44:39;96124.81;;;18.66;100.00
596;BME280;19946;49.306;11.350;2022-09-09T09:47:46;96149.19;;;18.81;100.00
596;BME280;19946;49.306;11.350;2022-09-09T09:50:57;96148.09;;;18.40;100.00
596;BME280;19946;49.306;11.350;2022-09-09T09:54:26;96149.34;;;19.29;100.00
596;BME280;19946;49.306;11.350;2022-09-09T09:57:31;96122.88;;;19.93;100.00
596;BME280;19946;49.306;11.350;2022-09-09T10:00:33;96091.75;;;19.96;100.00
596;BME280;19946;49.306;11.350;2022-09-09T10:03:51;96145.16;;;20.58;100.00
596;BME280;19946;49.306;11.350;2022-09-09T10:06:52;96131.22;;;20.77;100.00
596;BME280;19946;49.306;11.350;2022-09-09T10:09:55;96132.50;;;20.33;100.00
596;BME280;19946;49.306;11.350;2022-09-09T10:13:20;96069.47;;;20.40;100.00
596;BME280;19946;49.306;11.350;2022-09-09T10:16:59;96139.06;;;19.96;100.00
596;BME280;19946;49.306;11.350;2022-09-09T10:20:30;96129.41;;;20.64;100.00
596;BME280;19946;49.306;11.350;2022-09-09T10:24:02;96123.63;;;20.34;100.00
596;BME280;19946;49.306;11.350;2022-09-09T10:34:09;96121.31;;;20.99;100.00
596;BME280;19946;49.306;11.350;2022-09-09T10:44:18;96127.41;;;18.45;100.00
596;BME280;19946;49.306;11.350;2022-09-09T10:50:58;96110.97;;;19.28;100.00
596;BME280;19946;49.306;11.350;2022-09-09T10:54:26;96061.09;;;19.28;100.00
596;BME280;19946;49.306;11.350;2022-09-09T10:57:39;96062.94;;;19.00;100.00
596;BME280;19946;49.306;11.350;2022-09-09T11:00:44;96053.78;;;18.89;100.00
596;BME280;19946;49.306;11.350;2022-09-09T11:03:53;96107.78;;;20.08;100.00
596;BME280;19946;49.306;11.350;2022-09-09T11:06:55;96091.06;;;20.22;100.00
596;BME280;19946;49.306;11.350;2022-09-09T11:10:01;96108.84;;;20.20;100.00
596;BME280;19946;49.306;11.350;2022-09-09T11:13:09;96094.34;;;19.83;100.00
596;BME280;19946;49.306;11.350;2022-09-09T11:19:39;96085.69;;;19.96;100.00
596;BME280;19946;49.306;11.350;2022-09-09T11:22:59;96087.28;;;19.49;100.00
596;BME280;19946;49.306;11.350;2022-09-09T11:26:02;96062.69;;;19.22;100.00
596;BME280;19946;49.306;11.350;2022-09-09T11:32:48;96091.34;;;20.67;100.00
596;BME280;19946;49.306;11.350;2022-09-09T11:36:19;96093.53;;;19.48;100.00
596;BME280;19946;49.306;11.350;2022-09-09T11:46:36;96060.28;;;18.72;100.00
596;BME280;19946;49.306;11.350;2022-09-09T11:52:42;96058.88;;;19.25;100.00
596;BME280;19946;49.306;11.350;2022-09-09T11:55:45;96056.22;;;18.90;100.00
596;BME280;19946;49.306;11.350;2022-09-09T11:59:06;96067.06;;;19.15;100.00
596;BME280;19946;49.306;11.350;2022-09-09T12:02:25;96057.50;;;19.01;100.00
596;BME280;19946;49.306;11.350;2022-09-09T12:05:44;96060.28;;;20.16;100.00
596;BME280;19946;49.306;11.350;2022-09-09T12:08:53;96040.25;;;20.15;100.00
596;BME280;19946;49.306;11.350;2022-09-09T12:12:31;96066.50;;;20.02;100.00
596;BME280;19946;49.306;11.350;2022-09-09T12:15:32;96062.38;;;20.47;100.00
596;BME280;19946;49.306;11.350;2022-09-09T12:18:38;95976.63;;;19.52;100.00
596;BME280;19946;49.306;11.350;2022-09-09T12:31:40;96022.53;;;20.63;100.00
596;BME280;19946;49.306;11.350;2022-09-09T12:35:09;96026.56;;;20.46;100.00
596;BME280;19946;49.306;11.350;2022-09-09T12:38:17;96013.56;;;20.18;100.00
596;BME280;19946;49.306;11.350;2022-09-09T12:41:24;96018.59;;;20.07;100.00
596;BME280;19946;49.306;11.350;2022-09-09T12:44:26;95968.59;;;19.67;100.00
596;BME280;19946;49.306;11.350;2022-09-09T12:47:44;95990.91;;;20.24;100.00
596;BME280;19946;49.306;11.350;2022-09-09T12:50:48;96018.50;;;20.61;100.00
596;BME280;19946;49.306;11.350;2022-09-09T12:53:49;96006.34;;;20.73;100.00
596;BME280;19946;49.306;11.350;2022-09-09T12:56:50;96018.28;;;20.62;100.00
596;BME280;19946;49.306;11.350;2022-09-09T12:59:51;96001.06;;;20.66;100.00
596;BME280;19946;49.306;11.350;2022-09-09T13:02:55;96003.84;;;20.12;100.00
596;BME280;19946;49.306;11.350;2022-09-09T13:06:11;95945.19;;;19.79;100.00
596;BME280;19946;49.306;11.350;2022-09-09T13:09:12;95966.41;;;19.90;100.00
596;BME280;19946;49.306;11.350;2022-09-09T13:12:22;96001.03;;;20.33;100.00
596;BME280;19946;49.306;11.350;2022-09-09T13:15:24;95913.69;;;20.18;100.00
596;BME280;19946;49.306;11.350;2022-09-09T13:18:29;95974.19;;;20.51;100.00
596;BME280;19946;49.306;11.350;2022-09-09T13:21:34;95993.97;;;20.21;100.00
596;BME280;19946;49.306;11.350;2022-09-09T13:24:35;96021.91;;;20.68;100.00
596;BME280;19946;49.306;11.350;2022-09-09T13:27:38;95936.94;;;20.08;100.00
596;BME280;19946;49.306;11.350;2022-09-09T13:30:38;95996.44;;;20.68;100.00
596;BME280;19946;49.306;11.350;2022-09-09T13:33:41;96018.63;;;20.26;100.00
596;BME280;19946;49.306;11.350;2022-09-09T13:36:41;95981.38;;;19.96;100.00
596;BME280;19946;49.306;11.350;2022-09-09T13:39:51;96015.66;;;20.69;100.00
596;BME280;19946;49.306;11.350;2022-09-09T13:42:56;96004.28;;;20.29;100.00
596;BME280;19946;49.306;11.350;2022-09-09T13:45:58;95991.81;;;19.22;100.00
596;BME280;19946;49.306;11.350;2022-09-09T13:49:01;96015.53;;;19.42;100.00
596;BME280;19946;49.306;11.350;2022-09-09T13:52:11;96019.78;;;19.09;100.00
596;BME280;19946;49.306;11.350;2022-09-09T13:55:13;96016.97;;;19.10;100.00
596;BME280;19946;49.306;11.350;2022-09-09T13:58:15;96009.94;;;19.17;100.00
596;BME280;19946;49.306;11.350;2022-09-09T14:01:16;96018.53;;;18.70;100.00
596;BME280;19946;49.306;11.350;2022-09-09T14:04:17;96005.91;;;17.74;100.00
596;BME280;19946;49.306;11.350;2022-09-09T14:07:18;96035.72;;;17.73;100.00
596;BME280;19946;49.306;11.350;2022-09-09T14:10:19;95983.59;;;17.12;100.00
596;BME280;19946;49.306;11.350;2022-09-09T14:13:19;95996.59;;;17.06;100.00
596;BME280;19946;49.306;11.350;2022-09-09T14:16:21;96068.81;;;16.32;100.00
596;BME280;19946;49.306;11.350;2022-09-09T14:19:21;96052.38;;;15.69;100.00
596;BME280;19946;49.306;11.350;2022-09-09T14:22:23;96037.09;;;15.50;100.00
596;BME280;19946;49.306;11.350;2022-09-09T14:25:24;96023.59;;;16.09;100.00
596;BME280;19946;49.306;11.350;2022-09-09T14:28:24;96026.69;;;16.50;100.00
596;BME280;19946;49.306;11.350;2022-09-09T14:31:25;96019.03;;;16.71;100.00
596;BME280;19946;49.306;11.350;2022-09-09T14:34:26;96003.72;;;16.83;100.00
596;BME280;19946;49.306;11.350;2022-09-09T14:37:27;96038.34;;;16.99;100.00
596;BME280;19946;49.306;11.350;2022-09-09T14:40:27;96036.91;;;16.97;100.00
596;BME280;19946;49.306;11.350;2022-09-09T14:43:29;96057.84;;;16.97;100.00
596;BME280;19946;49.306;11.350;2022-09-09T14:46:30;96043.84;;;16.52;100.00
596;BME280;19946;49.306;11.350;2022-09-09T14:49:34;96054.34;;;16.67;100.00
596;BME280;19946;49.306;11.350;2022-09-09T14:52:34;96048.91;;;16.31;100.00
596;BME280;19946;49.306;11.350;2022-09-09T14:55:36;96038.97;;;16.03;100.00
596;BME280;19946;49.306;11.350;2022-09-09T14:58:37;96065.00;;;16.12;100.00
596;BME280;19946;49.306;11.350;2022-09-09T15:01:38;96057.00;;;16.13;100.00
596;BME280;19946;49.306;11.350;2022-09-09T15:04:38;96071.13;;;16.04;100.00
596;BME280;19946;49.306;11.350;2022-09-09T15:07:38;96058.66;;;16.37;100.00
596;BME280;19946;49.306;11.350;2022-09-09T15:10:39;96061.56;;;16.42;100.00
596;BME280;19946;49.306;11.350;2022-09-09T15:13:41;96059.94;;;16.41;100.00
596;BME280;19946;49.306;11.350;2022-09-09T15:16:42;96036.69;;;16.23;100.00
596;BME280;19946;49.306;11.350;2022-09-09T15:19:42;96042.22;;;16.28;100.00
596;BME280;19946;49.306;11.350;2022-09-09T15:22:43;96043.38;;;16.26;100.00
596;BME280;19946;49.306;11.350;2022-09-09T15:25:53;96005.25;;;16.17;100.00
596;BME280;19946;49.306;11.350;2022-09-09T15:28:54;95988.00;;;16.08;100.00
596;BME280;19946;49.306;11.350;2022-09-09T15:31:54;96025.78;;;16.42;100.00
596;BME280;19946;49.306;11.350;2022-09-09T15:34:58;96048.66;;;16.63;100.00
596;BME280;19946;49.306;11.350;2022-09-09T15:38:02;96026.13;;;16.62;100.00
596;BME280;19946;49.306;11.350;2022-09-09T15:41:03;95975.88;;;16.52;100.00
596;BME280;19946;49.306;11.350;2022-09-09T15:44:03;95987.88;;;16.61;100.00
596;BME280;19946;49.306;11.350;2022-09-09T15:47:04;96036.53;;;16.85;100.00
596;BME280;19946;49.306;11.350;2022-09-09T15:50:04;95992.28;;;16.61;100.00
596;BME280;19946;49.306;11.350;2022-09-09T15:53:04;96055.44;;;16.72;100.00
596;BME280;19946;49.306;11.350;2022-09-09T15:56:06;96026.63;;;16.20;100.00
596;BME280;19946;49.306;11.350;2022-09-09T15:59:07;96032.72;;;16.73;100.00
596;BME280;19946;49.306;11.350;2022-09-09T16:02:08;96034.63;;;16.79;100.00
596;BME280;19946;49.306;11.350;2022-09-09T16:05:16;96072.81;;;17.03;100.00
596;BME280;19946;49.306;11.350;2022-09-09T16:08:16;96062.44;;;17.24;100.00
596;BME280;19946;49.306;11.350;2022-09-09T16:11:20;96057.03;;;17.40;100.00
596;BME280;19946;49.306;11.350;2022-09-09T16:14:21;96039.19;;;17.29;100.00
596;BME280;19946;49.306;11.350;2022-09-09T16:17:22;96059.19;;;17.51;100.00
596;BME280;19946;49.306;11.350;2022-09-09T16:20:22;96075.09;;;17.65;100.00
596;BME280;19946;49.306;11.350;2022-09-09T16:23:22;96079.78;;;17.84;100.00
596;BME280;19946;49.306;11.350;2022-09-09T16:26:25;96048.19;;;17.71;100.00
596;BME280;19946;49.306;11.350;2022-09-09T16:29:26;96089.84;;;18.02;100.00
596;BME280;19946;49.306;11.350;2022-09-09T16:32:27;96082.63;;;17.89;100.00
596;BME280;19946;49.306;11.350;2022-09-09T16:35:28;96083.22;;;17.70;100.00
596;BME280;19946;49.306;11.350;2022-09-09T16:38:29;96068.03;;;17.36;100.00
596;BME280;19946;49.306;11.350;2022-09-09T16:41:30;96077.34;;;17.24;100.00
596;BME280;19946;49.306;11.350;2022-09-09T16:44:31;96079.47;;;17.20;100.00
596;BME280;19946;49.306;11.350;2022-09-09T16:47:31;96080.34;;;16.60;100.00
596;BME280;19946;49.306;11.350;2022-09-09T16:50:32;96081.59;;;16.72;100.00
596;BME280;19946;49.306;11.350;2022-09-09T16:53:33;96045.13;;;16.11;100.00
596;BME280;19946;49.306;11.350;2022-09-09T16:56:36;96057.19;;;16.34;100.00
596;BME280;19946;49.306;11.350;2022-09-09T16:59:41;96075.63;;;16.56;100.00
596;BME280;19946;49.306;11.350;2022-09-09T17:02:42;96025.78;;;15.97;100.00
596;BME280;19946;49.306;11.350;2022-09-09T17:05:43;96053.34;;;15.77;100.00
596;BME280;19946;49.306;11.350;2022-09-09T17:08:44;96087.34;;;15.91;100.00
596;BME280;19946;49.306;11.350;2022-09-09T17:11:45;96059.19;;;15.79;100.00
596;BME280;19946;49.306;11.350;2022-09-09T17:14:47;96083.78;;;16.15;100.00
596;BME280;19946;49.306;11.350;2022-09-09T17:17:47;96087.31;;;15.99;100.00
596;BME280;19946;49.306;11.350;2022-09-09T17:20:49;96077.16;;;16.04;100.00
596;BME280;19946;49.306;11.350;2022-09-09T17:23:50;96085.28;;;16.10;100.00
596;BME280;19946;49.306;11.350;2022-09-09T17:26:50;96113.03;;;16.11;100.00
596;BME280;19946;49.306;11.350;2022-09-09T17:29:51;96109.34;;;15.97;100.00
596;BME280;19946;49.306;11.350;2022-09-09T17:32:51;96066.81;;;15.57;100.00
596;BME280;19946;49.306;11.350;2022-09-09T17:35:51;96072.53;;;15.45;100.00
596;BME280;19946;49.306;11.350;2022-09-09T17:38:52;96107.09;;;15.39;100.00
596;BME280;19946;49.306;11.350;2022-09-09T17:41:53;96085.81;;;15.19;100.00
596;BME280;19946;49.306;11.350;2022-09-09T17:44:54;96109.25;;;15.27;100.00
596;BME280;19946;49.306;11.350;2022-09-09T17:47:55;96063.72;;;14.74;100.00